WEATHER DATA

TODAY
Time Temp. Dewp. Hum. Bar.
00:06 4.7 3.7 93 1011.7
00:16 4.6 3.7 94 1012
00:26 4.7 3.8 94 1011.8
00:37 4.8 3.6 92 1012
00:47 4.8 3.5 91 1012.1
00:56 4.7 3.4 91 1012
01:07 4.7 3.5 92 1012.1
01:17 4.7 3.7 93 1012
01:27 4.7 3.7 93 1012.1
01:37 4.7 3.7 93 1012.1
01:48 4.7 3.7 93 1012.2
01:57 4.6 3.6 93 1012.4
02:07 4.5 3.6 94 1012.3
02:18 4.4 3.5 94 1012.4
02:28 4.4 3.5 94 1012.4
02:38 4.3 3.6 95 1012.4
02:47 4.2 3.5 95 1012.5
02:58 4.1 3.4 95 1012.6
03:08 4.1 3.4 95 1012.6
03:18 4 3.3 95 1012.5
03:28 4 3.3 95 1012.5
03:39 4 3.3 95 1012.4
03:48 4 3.3 95 1012.6
03:58 4 3.1 94 1012.7
04:09 3.9 3 94 1012.8
04:19 3.9 3 94 1012.7
04:29 3.9 3 94 1012.9
04:39 4 3.3 95 1012.8
04:49 4 3.3 95 1012.8
04:59 4.1 3.4 95 1012.9
05:09 4.1 3.5 96 1012.9
05:19 4.1 3.4 95 1012.9
05:29 4 3.4 96 1013
05:39 4 3.4 96 1013.1
05:49 4.1 3.5 96 1013.2
06:00 4.1 3.5 96 1013.2
06:09 4.1 3.5 96 1013.1
06:19 4.1 3.5 96 1013.1
06:30 4.1 3.5 96 1013.2
06:40 4.1 3.5 96 1013.3
06:50 4 3.4 96 1013.6
07:00 3.9 3.3 96 1013.6
07:11 3.8 3.4 97 1013.7
07:30 3.9 3.5 97 1014
07:40 3.9 3.5 97 1014.2
07:51 3.9 3.5 97 1014.3
08:01 4 3.6 97 1014.5
08:10 4.1 3.7 97 1014.6
08:21 4.2 3.8 97 1014.6
08:31 4.4 4 97 1014.8
08:41 4.6 4.2 97 1014.6
08:51 4.8 4.2 96 1014.8
09:01 5 4.3 95 1014.8
09:11 5.2 4.5 95 1015
09:21 5.5 4.6 94 1015
09:32 5.7 4.8 94 1015
09:42 6 5 93 1015
09:51 6.3 5.1 92 1015.1
10:01 6.5 5.1 91 1015.3
10:12 6.8 5.4 91 1015.2
10:22 7.2 5.3 88 1015.4
10:32 7.4 5.5 88 1015.4
10:42 7.8 5.4 85 1015.4
11:02 7.8 5.1 83 1015.3
11:12 8 5.3 83 1015.3
11:23 8.2 5 80 1015.4
11:33 8.4 5.3 81 1015.3
11:42 8.8 5.4 79 1015.3
11:53 9.2 5.2 76 1015.3
12:03 9.7 5.1 73 1015.1
12:13 10.4 5.6 72 1015.3
12:23 10.3 5.1 70 1015.1
12:34 10 4.6 69 1015.1
12:43 9.9 4.9 71 1015
12:53 10.3 4.9 69 1015
13:03 10.6 4.7 67 1014.9
13:14 10.8 4.9 67 1015
13:24 11 4.7 65 1014.8
13:34 10.9 4.8 66 1014.8
13:44 11 4.7 65 1014.9
13:54 11.3 4.3 62 1014.7
14:04 11.7 4.9 63 1014.7
14:14 12 4.7 61 1014.6
14:25 12.4 4.6 59 1014.4
14:35 12.7 4.2 56 1014.5
14:45 12.8 4.3 56 1014.4
14:55 12.6 4.6 58 1014.5
15:05 12.5 4.7 59 1014.3
15:15 12.1 4.3 59 1014.3
15:25 11.6 4.3 61 1014.3
15:36 11.3 4.3 62 1014.3
15:45 11.1 4.1 62 1014.2
15:55 10.8 3.8 62 1014
16:05 10.6 4.1 64 1014
16:16 10.2 3.9 65 1014.1
16:26 10 4.2 67 1013.9
16:36 9.7 4.3 69 1014
16:46 9.3 4.1 70 1014
16:56 8.9 4.3 73 1014
17:06 8.5 4.5 76 1013.9

DAY STATISTIC

2019-02-19
TEMPERATURE
AVERAGE
6.8
HIGH
12.8
14:45
LOW
3.8
07:11
PRESSURE
AVERAGE
1013.8
HIGH
1015.4
10:22
LOW
1011.7
00:06
DEWPOINT
AVERAGE
4.1
HIGH
5.6
12:13
LOW
3.0
04:09
HUMIDITY
AVERAGE
84
HIGH
97
07:11
LOW
56
14:35
TEMPERATURE (°C)
LOW
3.8
HIGH
12.8
AVERAGE
6.8
PRESSURE (hpa)
LOW
1011.7
HIGH
1015.4
AVERAGE
1013.8
DEVICE